createdAt,value
2019-05-07T00:00:53.159Z,6.72
2019-05-07T00:03:23.549Z,11.97
2019-05-07T00:05:54.082Z,10.18
2019-05-07T00:08:24.505Z,8.90
2019-05-07T00:10:55.948Z,9.08
2019-05-07T00:13:26.349Z,9.10
2019-05-07T00:15:56.673Z,10.82
2019-05-07T00:18:27.055Z,9.30
2019-05-07T00:20:57.391Z,8.35
2019-05-07T00:23:27.841Z,10.32
2019-05-07T00:25:59.223Z,9.43
2019-05-07T00:28:29.659Z,10.72
2019-05-07T00:31:00.134Z,6.85
2019-05-07T00:33:32.316Z,11.88
2019-05-07T00:36:12.436Z,11.35
2019-05-07T00:38:45.611Z,9.35
2019-05-07T00:41:29.313Z,11.35
2019-05-07T00:43:59.933Z,10.18
2019-05-07T00:46:32.261Z,8.75
2019-05-07T00:49:02.609Z,8.38
2019-05-07T00:51:35.063Z,8.08
2019-05-07T00:54:06.745Z,8.70
2019-05-07T00:56:37.047Z,8.95
2019-05-07T00:59:07.422Z,8.85
2019-05-07T01:01:38.015Z,9.40
2019-05-07T01:04:08.361Z,7.12
2019-05-07T01:06:38.705Z,11.10
2019-05-07T01:09:09.074Z,9.50
2019-05-07T01:11:42.698Z,13.03
2019-05-07T01:14:12.584Z,10.63
2019-05-07T01:16:42.899Z,8.35
2019-05-07T01:19:13.239Z,9.45
2019-05-07T01:21:44.037Z,9.23
2019-05-07T01:24:14.421Z,10.28
2019-05-07T01:26:44.843Z,13.18
2019-05-07T01:29:15.482Z,10.53
2019-05-07T01:32:12.717Z,12.88
2019-05-07T01:34:54.497Z,10.00
2019-05-07T01:37:24.796Z,11.10
2019-05-07T01:39:55.485Z,10.08
2019-05-07T01:42:27.075Z,11.48
2019-05-07T01:44:57.831Z,11.33
2019-05-07T01:47:28.128Z,12.82
2019-05-07T01:49:58.453Z,16.15
2019-05-07T01:52:47.847Z,10.48
2019-05-07T01:55:18.205Z,9.63
2019-05-07T01:57:48.593Z,11.08
2019-05-07T02:00:19.131Z,8.15
2019-05-07T02:02:57.661Z,11.68
2019-05-07T02:05:34.066Z,9.50
2019-05-07T02:08:07.133Z,7.78
2019-05-07T02:10:44.814Z,9.48
2019-05-07T02:13:16.011Z,8.85
2019-05-07T02:15:57.451Z,8.70
2019-05-07T02:18:18.275Z,8.40
2019-05-07T02:20:48.584Z,8.05
2019-05-07T02:23:18.979Z,10.32
2019-05-07T02:25:49.390Z,9.65
2019-05-07T02:28:22.263Z,10.40
2019-05-07T02:30:53.533Z,10.75
2019-05-07T02:33:23.989Z,9.03
2019-05-07T02:35:54.342Z,8.80
2019-05-07T02:38:43.944Z,10.48
2019-05-07T02:41:16.366Z,11.00
2019-05-07T02:43:48.070Z,7.05
2019-05-07T02:46:32.021Z,8.55
2019-05-07T02:49:23.481Z,7.22
2019-05-07T02:52:04.077Z,8.45
2019-05-07T02:54:53.866Z,7.67
2019-05-07T02:57:24.494Z,8.43
2019-05-07T02:59:54.852Z,8.83
2019-05-07T03:02:25.195Z,8.48
2019-05-07T03:04:57.245Z,8.15
2019-05-07T03:07:27.840Z,9.50
2019-05-07T03:09:59.361Z,7.87
2019-05-07T03:12:29.764Z,6.92
2019-05-07T03:15:04.479Z,7.65
2019-05-07T03:17:35.027Z,8.33
2019-05-07T03:20:08.738Z,7.42
2019-05-07T03:22:39.025Z,7.47
2019-05-07T03:25:17.595Z,7.78
2019-05-07T03:27:48.864Z,7.80
2019-05-07T03:30:36.010Z,8.35
2019-05-07T03:33:25.603Z,8.45
2019-05-07T03:35:56.130Z,6.00
2019-05-07T03:38:26.045Z,12.15
2019-05-07T03:40:56.395Z,6.90
2019-05-07T03:43:27.189Z,7.17
2019-05-07T03:46:16.430Z,7.10
2019-05-07T03:48:48.111Z,11.38
2019-05-07T03:51:18.394Z,9.75
2019-05-07T03:53:48.765Z,9.45
2019-05-07T03:56:19.082Z,7.03
2019-05-07T03:58:49.429Z,8.25
2019-05-07T04:01:19.763Z,13.93
2019-05-07T04:03:53.103Z,7.47
2019-05-07T04:06:23.413Z,9.60
2019-05-07T04:08:54.009Z,11.10
2019-05-07T04:11:24.363Z,7.55
2019-05-07T04:13:55.034Z,8.25
2019-05-07T04:16:26.021Z,9.78
2019-05-07T04:18:56.295Z,8.35
2019-05-07T04:21:27.233Z,9.48
2019-05-07T04:24:14.134Z,8.65
2019-05-07T04:26:48.189Z,10.00
2019-05-07T04:29:18.557Z,12.33
2019-05-07T04:31:48.870Z,9.93
2019-05-07T04:34:24.601Z,9.00
2019-05-07T04:36:55.000Z,7.33
2019-05-07T04:39:25.301Z,9.15
2019-05-07T04:41:55.654Z,9.40
2019-05-07T04:44:26.009Z,10.53
2019-05-07T04:46:56.386Z,9.18
2019-05-07T04:49:26.738Z,11.33
2019-05-07T04:52:14.969Z,9.78
2019-05-07T04:54:43.903Z,7.85
2019-05-07T04:57:26.816Z,9.05
2019-05-07T04:59:58.219Z,10.85
2019-05-07T05:02:43.292Z,10.98
2019-05-07T05:05:12.870Z,8.03
2019-05-07T05:07:44.446Z,8.05
2019-05-07T05:10:14.844Z,11.10
2019-05-07T05:12:45.179Z,5.72
2019-05-07T05:15:15.787Z,8.55
2019-05-07T05:17:50.735Z,8.78
2019-05-07T05:20:22.803Z,7.80
2019-05-07T05:23:08.116Z,6.40
2019-05-07T05:25:40.089Z,6.08
2019-05-07T05:28:12.403Z,7.72
2019-05-07T05:30:47.301Z,8.90
2019-05-07T05:33:18.506Z,8.03
2019-05-07T05:35:48.954Z,9.85
2019-05-07T05:38:19.286Z,7.33
2019-05-07T05:40:51.886Z,7.42
2019-05-07T05:43:55.773Z,9.33
2019-05-07T05:46:27.663Z,6.90
2019-05-07T05:48:58.001Z,9.30
2019-05-07T05:51:52.561Z,9.35
2019-05-07T05:54:42.618Z,8.68
2019-05-07T05:57:32.352Z,7.30
2019-05-07T06:00:22.050Z,7.12
2019-05-07T06:03:17.117Z,6.90
2019-05-07T06:06:09.592Z,7.15
2019-05-07T06:08:58.843Z,5.50
2019-05-07T06:11:43.002Z,5.80
2019-05-07T06:14:22.196Z,9.35
2019-05-07T06:17:09.418Z,6.67
2019-05-07T06:19:48.151Z,7.60
2019-05-07T06:22:42.457Z,9.83
2019-05-07T06:25:18.385Z,8.65
2019-05-07T06:27:48.770Z,6.35
2019-05-07T06:30:19.588Z,7.33
2019-05-07T06:32:52.132Z,6.12
2019-05-07T06:35:43.037Z,5.45
2019-05-07T06:38:14.461Z,6.53
2019-05-07T06:40:54.643Z,4.20
2019-05-07T06:43:33.373Z,6.10
2019-05-07T06:46:04.852Z,7.28
2019-05-07T06:48:42.282Z,5.25
2019-05-07T06:51:08.052Z,5.12
2019-05-07T06:53:38.392Z,5.28
2019-05-07T06:56:08.748Z,6.22
2019-05-07T06:58:47.288Z,7.05
2019-05-07T07:01:28.674Z,6.45
2019-05-07T07:04:09.136Z,7.03
2019-05-07T07:07:26.322Z,4.72
2019-05-07T07:09:59.356Z,5.22
2019-05-07T07:12:33.121Z,5.85
2019-05-07T07:15:06.070Z,7.70
2019-05-07T07:17:37.672Z,6.63
2019-05-07T07:20:08.290Z,5.70
2019-05-07T07:22:40.023Z,6.03
2019-05-07T07:25:11.931Z,6.47
2019-05-07T07:27:42.957Z,5.40
2019-05-07T07:30:44.845Z,6.60
2019-05-07T07:33:16.011Z,4.93
2019-05-07T07:35:46.611Z,4.40
2019-05-07T07:38:36.100Z,4.90
2019-05-07T07:41:24.930Z,4.77
2019-05-07T07:43:55.258Z,3.90
2019-05-07T07:46:25.670Z,4.27
2019-05-07T07:49:06.877Z,4.23
2019-05-07T07:51:38.889Z,3.93
2019-05-07T07:54:02.466Z,4.70
2019-05-07T07:56:50.227Z,4.90
2019-05-07T07:59:29.544Z,4.60
2019-05-07T08:02:17.736Z,5.00
2019-05-07T08:04:48.028Z,5.90
2019-05-07T08:07:18.420Z,5.27
2019-05-07T08:09:48.717Z,6.47
2019-05-07T08:12:18.989Z,6.17
2019-05-07T08:14:51.759Z,5.77
2019-05-07T08:17:22.406Z,5.17
2019-05-07T08:19:53.036Z,5.20
2019-05-07T08:22:23.360Z,6.70
2019-05-07T08:24:54.261Z,5.60
2019-05-07T08:27:24.603Z,5.67
2019-05-07T08:29:56.116Z,5.50
2019-05-07T08:32:35.488Z,6.03
2019-05-07T08:38:07.343Z,5.87
2019-05-07T08:40:37.684Z,5.50
2019-05-07T08:43:08.660Z,7.60
2019-05-07T08:45:56.772Z,6.57
2019-05-07T08:48:36.660Z,5.57
2019-05-07T08:51:07.010Z,5.90
2019-05-07T08:53:37.431Z,5.67
2019-05-07T08:56:07.834Z,6.07
2019-05-07T09:05:11.937Z,5.40
2019-05-07T09:10:48.429Z,5.40
2019-05-07T09:16:31.949Z,5.20
2019-05-07T09:19:02.296Z,6.20
2019-05-07T09:21:34.372Z,6.77
2019-05-07T09:33:57.537Z,5.00
2019-05-07T09:36:33.338Z,6.20
2019-05-07T09:39:05.539Z,6.30
2019-05-07T09:41:36.239Z,5.50
2019-05-07T09:44:06.591Z,5.90
2019-05-07T09:46:37.815Z,6.37
2019-05-07T09:49:08.151Z,4.80
2019-05-07T09:51:38.459Z,6.23
2019-05-07T09:54:09.142Z,6.00
2019-05-07T09:56:42.240Z,5.97
2019-05-07T09:59:12.710Z,5.80
2019-05-07T10:01:44.418Z,4.97
2019-05-07T10:04:14.945Z,6.23
2019-05-07T10:06:45.261Z,4.90
2019-05-07T10:09:15.617Z,5.90
2019-05-07T10:11:52.579Z,6.53
2019-05-07T10:14:22.947Z,5.53
2019-05-07T10:20:04.429Z,4.80
2019-05-07T10:22:33.181Z,6.53
2019-05-07T10:25:03.611Z,5.50
2019-05-07T10:27:34.105Z,6.30
2019-05-07T10:30:04.629Z,6.00
2019-05-07T10:32:35.505Z,5.77
2019-05-07T10:35:06.560Z,5.67
2019-05-07T10:37:36.865Z,6.03
2019-05-07T10:40:08.387Z,5.10
2019-05-07T10:42:39.051Z,4.80
2019-05-07T10:45:32.272Z,5.70
2019-05-07T10:48:18.181Z,4.87
2019-05-07T10:50:51.601Z,6.07
2019-05-07T10:53:22.976Z,5.40
2019-05-07T10:55:54.470Z,6.33
2019-05-07T10:58:24.852Z,4.13
2019-05-07T11:00:55.867Z,6.53
2019-05-07T11:03:26.329Z,4.63
2019-05-07T11:05:59.377Z,4.87
2019-05-07T11:08:29.748Z,4.77
2019-05-07T11:11:00.045Z,4.80
2019-05-07T11:13:30.393Z,4.77
2019-05-07T11:16:06.412Z,5.07
2019-05-07T11:18:48.466Z,5.80
2019-05-07T11:21:30.227Z,3.27
2019-05-07T11:24:03.106Z,4.93
2019-05-07T11:26:33.317Z,4.77
2019-05-07T11:29:03.740Z,5.10
2019-05-07T11:31:34.045Z,4.50
2019-05-07T11:34:05.295Z,5.83
2019-05-07T11:36:35.645Z,5.13
2019-05-07T11:39:07.948Z,4.47
2019-05-07T11:41:57.339Z,4.50
2019-05-07T11:44:29.347Z,5.00
2019-05-07T11:47:22.385Z,5.47
2019-05-07T11:50:11.961Z,4.63
2019-05-07T11:52:46.993Z,6.47
2019-05-07T11:55:17.322Z,5.20
2019-05-07T11:57:48.014Z,4.57
2019-05-07T12:00:27.956Z,4.27
2019-05-07T12:02:58.283Z,3.93
2019-05-07T12:05:29.557Z,4.40
2019-05-07T12:08:02.196Z,6.23
2019-05-07T12:10:32.833Z,5.10
2019-05-07T12:13:03.318Z,4.80
2019-05-07T12:15:33.725Z,3.60
2019-05-07T12:18:04.233Z,4.17
2019-05-07T12:20:34.585Z,4.33
2019-05-07T12:23:05.304Z,4.50
2019-05-07T12:25:35.784Z,4.77
2019-05-07T12:28:06.345Z,4.13
2019-05-07T12:31:07.895Z,4.50
2019-05-07T12:34:06.170Z,5.93
2019-05-07T12:36:38.186Z,6.10
2019-05-07T12:39:09.751Z,3.90
2019-05-07T12:41:42.034Z,5.07
2019-05-07T12:44:13.023Z,4.50
2019-05-07T12:46:43.513Z,3.43
2019-05-07T12:49:13.850Z,5.27
2019-05-07T12:51:53.081Z,4.13
2019-05-07T12:54:34.682Z,4.57
2019-05-07T12:57:04.219Z,6.40
2019-05-07T12:59:34.525Z,5.53
2019-05-07T13:02:26.661Z,4.57
2019-05-07T13:04:46.305Z,4.73
2019-05-07T13:07:38.176Z,4.00
2019-05-07T13:10:08.838Z,4.53
2019-05-07T13:12:39.251Z,4.13
2019-05-07T13:15:23.508Z,3.90
2019-05-07T13:17:42.263Z,4.77
2019-05-07T13:20:12.751Z,4.30
2019-05-07T13:22:43.149Z,4.93
2019-05-07T13:25:14.477Z,2.90
2019-05-07T13:27:44.805Z,4.30
2019-05-07T13:30:15.405Z,4.77
2019-05-07T13:32:48.277Z,5.37
2019-05-07T13:35:18.823Z,4.27
2019-05-07T13:38:11.800Z,5.17
2019-05-07T13:40:59.183Z,3.50
2019-05-07T13:43:34.239Z,3.53
2019-05-07T13:46:12.056Z,2.73
2019-05-07T13:48:45.868Z,5.03
2019-05-07T13:51:37.341Z,3.80
2019-05-07T13:54:33.447Z,3.70
2019-05-07T13:57:12.010Z,3.60
2019-05-07T13:59:44.141Z,3.50
2019-05-07T14:02:25.395Z,3.67
2019-05-07T14:05:18.921Z,3.27
2019-05-07T14:07:54.477Z,4.67
2019-05-07T14:10:57.785Z,6.20
2019-05-07T14:13:33.349Z,4.83
2019-05-07T14:16:12.150Z,4.57
2019-05-07T14:19:13.001Z,4.73
2019-05-07T14:21:43.226Z,4.73
2019-05-07T14:24:14.904Z,4.70
2019-05-07T14:26:45.261Z,4.60
2019-05-07T14:29:17.561Z,4.47
2019-05-07T14:31:52.173Z,3.97
2019-05-07T14:34:34.723Z,4.87
2019-05-07T14:37:08.979Z,5.00
2019-05-07T14:39:42.550Z,2.83
2019-05-07T14:42:27.066Z,3.70
2019-05-07T14:44:58.339Z,4.27
2019-05-07T14:47:28.685Z,4.23
2019-05-07T14:49:58.986Z,2.70
2019-05-07T14:52:33.176Z,3.23
2019-05-07T14:55:05.055Z,3.00
2019-05-07T14:57:33.801Z,4.23
2019-05-07T15:00:04.863Z,3.60
2019-05-07T15:02:35.626Z,4.70
2019-05-07T15:05:06.492Z,3.97
2019-05-07T15:07:36.822Z,4.77
2019-05-07T15:10:07.377Z,4.13
2019-05-07T15:12:37.809Z,3.93
2019-05-07T15:15:09.126Z,4.20
2019-05-07T15:17:48.369Z,3.60
2019-05-07T15:20:19.140Z,3.07
2019-05-07T15:23:15.000Z,4.60
2019-05-07T15:25:45.400Z,3.80
2019-05-07T15:28:15.732Z,3.97
2019-05-07T15:30:52.896Z,3.33
2019-05-07T15:33:23.243Z,3.87
2019-05-07T15:35:53.788Z,3.90
2019-05-07T15:38:24.150Z,4.80
2019-05-07T15:40:54.782Z,4.13
2019-05-07T15:43:25.195Z,4.40
2019-05-07T15:45:58.543Z,3.63
2019-05-07T15:48:29.306Z,3.83
2019-05-07T15:50:59.577Z,4.07
2019-05-07T15:53:49.182Z,3.70
2019-05-07T15:56:21.856Z,3.73
2019-05-07T15:58:52.465Z,3.47
2019-05-07T16:01:22.822Z,4.23
2019-05-07T16:03:54.792Z,5.20
2019-05-07T16:06:25.560Z,4.93
2019-05-07T16:09:02.436Z,3.67
2019-05-07T16:11:34.325Z,3.53
2019-05-07T16:14:19.511Z,3.10
2019-05-07T16:16:51.847Z,4.20
2019-05-07T16:19:26.744Z,3.20
2019-05-07T16:21:59.361Z,3.43
2019-05-07T16:24:31.797Z,3.90
2019-05-07T16:27:02.601Z,3.00
2019-05-07T16:29:35.649Z,3.83
2019-05-07T16:32:05.605Z,3.90
2019-05-07T16:34:35.976Z,3.13
2019-05-07T16:37:07.545Z,3.77
2019-05-07T16:39:38.285Z,4.20
2019-05-07T16:42:10.458Z,2.97
2019-05-07T16:44:41.780Z,3.47
2019-05-07T16:47:12.307Z,3.60
2019-05-07T16:49:42.694Z,3.30
2019-05-07T16:52:13.565Z,4.00
2019-05-07T16:54:45.264Z,3.40
2019-05-07T16:57:33.953Z,3.30
2019-05-07T17:00:05.406Z,3.87
2019-05-07T17:02:41.708Z,2.90
2019-05-07T17:05:14.999Z,4.63
2019-05-07T17:07:53.326Z,3.53
2019-05-07T17:10:23.802Z,2.90
2019-05-07T17:12:55.415Z,4.40
2019-05-07T17:15:25.808Z,4.37
2019-05-07T17:18:02.824Z,3.90
2019-05-07T17:20:33.320Z,3.13
2019-05-07T17:23:03.738Z,3.50
2019-05-07T17:25:37.154Z,3.63
2019-05-07T17:28:08.161Z,3.37
2019-05-07T17:30:38.825Z,5.43
2019-05-07T17:33:09.901Z,3.53
2019-05-07T17:35:42.186Z,3.63
2019-05-07T17:38:12.969Z,3.90
2019-05-07T17:40:43.563Z,2.70
2019-05-07T17:43:16.652Z,4.27
2019-05-07T17:45:47.419Z,3.47
2019-05-07T17:48:17.811Z,3.57
2019-05-07T17:51:00.564Z,4.00
2019-05-07T17:53:32.012Z,2.60
2019-05-07T17:56:02.993Z,2.93
2019-05-07T17:58:33.364Z,3.37
2019-05-07T18:01:04.504Z,4.47
2019-05-07T18:03:38.382Z,5.30
2019-05-07T18:06:12.363Z,4.70
2019-05-07T18:08:42.315Z,3.73
2019-05-07T18:11:21.018Z,5.33
2019-05-07T18:13:46.276Z,4.10
2019-05-07T18:16:38.613Z,5.80
2019-05-07T18:19:08.974Z,5.63
2019-05-07T18:21:39.330Z,5.33
2019-05-07T18:24:13.818Z,3.73
2019-05-07T18:26:42.874Z,4.87
2019-05-07T18:29:13.284Z,5.57
2019-05-07T18:31:56.496Z,5.37
2019-05-07T18:34:27.306Z,4.80
2019-05-07T18:36:57.689Z,3.90
2019-05-07T18:39:28.030Z,6.13
2019-05-07T18:41:58.452Z,4.57
2019-05-07T18:44:29.726Z,5.77
2019-05-07T18:47:02.159Z,5.30
2019-05-07T18:49:32.123Z,5.30
2019-05-07T18:52:02.915Z,5.43
2019-05-07T18:54:34.568Z,4.50
2019-05-07T18:57:04.894Z,5.40
2019-05-07T18:59:36.713Z,5.93
2019-05-07T19:02:07.161Z,5.43
2019-05-07T19:04:37.507Z,5.50
2019-05-07T19:07:07.807Z,3.83
2019-05-07T19:09:38.212Z,4.90
2019-05-07T19:12:10.152Z,6.20
2019-05-07T19:14:42.294Z,5.87
2019-05-07T19:17:12.700Z,6.12
2019-05-07T19:19:43.071Z,4.17
2019-05-07T19:22:13.433Z,5.35
2019-05-07T19:24:48.031Z,4.10
2019-05-07T19:27:17.258Z,5.83
2019-05-07T19:29:47.600Z,5.83
2019-05-07T19:32:17.958Z,4.10
2019-05-07T19:34:48.431Z,5.55
2019-05-07T19:37:18.919Z,6.62
2019-05-07T19:39:49.307Z,5.15
2019-05-07T19:42:20.782Z,5.40
2019-05-07T19:44:52.946Z,4.17
2019-05-07T19:47:23.471Z,6.10
2019-05-07T19:50:01.994Z,8.50
2019-05-07T19:52:33.158Z,5.83
2019-05-07T19:55:04.840Z,5.35
2019-05-07T19:57:42.539Z,4.10
2019-05-07T20:00:14.291Z,6.40
2019-05-07T20:02:47.292Z,5.33
2019-05-07T20:05:17.662Z,4.80
2019-05-07T20:07:48.014Z,5.22
2019-05-07T20:10:25.327Z,4.47
2019-05-07T20:12:56.723Z,5.33
2019-05-07T20:15:27.250Z,5.65
2019-05-07T20:17:57.630Z,4.28
2019-05-07T20:20:28.099Z,5.72
2019-05-07T20:22:58.514Z,6.58
2019-05-07T20:25:28.806Z,4.53
2019-05-07T20:27:59.634Z,6.45
2019-05-07T20:30:33.124Z,6.05
2019-05-07T20:33:03.536Z,6.47
2019-05-07T20:35:37.079Z,7.65
2019-05-07T20:38:05.955Z,5.78
2019-05-07T20:40:36.324Z,6.12
2019-05-07T20:43:06.666Z,8.20
2019-05-07T20:45:38.459Z,6.53
2019-05-07T20:48:09.399Z,6.85
2019-05-07T20:50:39.858Z,6.60
2019-05-07T20:53:10.167Z,9.23
2019-05-07T20:55:49.131Z,8.78
2019-05-07T20:58:19.483Z,9.90
2019-05-07T21:00:49.932Z,8.85
2019-05-07T21:03:20.338Z,7.50
2019-05-07T21:05:53.222Z,9.68
2019-05-07T21:08:23.751Z,8.05
2019-05-07T21:10:54.164Z,11.12
2019-05-07T21:13:31.412Z,12.63
2019-05-07T21:15:57.954Z,8.35
2019-05-07T21:18:28.327Z,9.90
2019-05-07T21:20:58.707Z,10.43
2019-05-07T21:23:29.071Z,7.85
2019-05-07T21:25:59.492Z,8.28
2019-05-07T21:28:32.169Z,8.90
2019-05-07T21:31:02.765Z,8.75
2019-05-07T21:33:33.350Z,8.60
2019-05-07T21:36:03.731Z,9.78
2019-05-07T21:38:34.050Z,8.20
2019-05-07T21:41:04.496Z,8.40
2019-05-07T21:43:35.181Z,8.35
2019-05-07T21:46:06.199Z,9.55
2019-05-07T21:48:36.533Z,7.80
2019-05-07T21:51:07.994Z,7.67
2019-05-07T21:53:53.777Z,7.00
2019-05-07T21:56:31.272Z,7.83
2019-05-07T21:59:14.189Z,8.08
2019-05-07T22:01:52.495Z,7.28
2019-05-07T22:04:22.423Z,8.38
2019-05-07T22:06:54.076Z,6.47
2019-05-07T22:09:24.386Z,8.28
2019-05-07T22:11:55.133Z,6.47
2019-05-07T22:14:26.274Z,7.33
2019-05-07T22:16:57.275Z,7.55
2019-05-07T22:19:28.309Z,8.73
2019-05-07T22:21:59.130Z,8.60
2019-05-07T22:24:32.830Z,9.43
2019-05-07T22:27:04.218Z,9.70
2019-05-07T22:29:35.690Z,9.28
2019-05-07T22:32:17.369Z,10.00
2019-05-07T22:34:52.898Z,11.85
2019-05-07T22:37:24.921Z,11.75
2019-05-07T22:40:13.537Z,10.90
2019-05-07T22:42:45.498Z,7.17
2019-05-07T22:45:15.870Z,8.40
2019-05-07T22:47:47.283Z,12.35
2019-05-07T22:50:17.629Z,6.75
2019-05-07T22:52:47.951Z,7.50
2019-05-07T22:55:18.339Z,7.35
2019-05-07T22:58:00.159Z,8.00
2019-05-07T23:00:37.218Z,7.30
2019-05-07T23:03:07.534Z,10.30
2019-05-07T23:05:37.857Z,10.88
2019-05-07T23:08:08.221Z,9.90
2019-05-07T23:10:38.642Z,8.90
2019-05-07T23:13:10.161Z,9.48
2019-05-07T23:15:42.801Z,8.35
2019-05-07T23:18:14.198Z,8.70
2019-05-07T23:20:44.906Z,9.98
2019-05-07T23:23:15.706Z,9.23
2019-05-07T23:25:46.125Z,7.08
2019-05-07T23:28:16.471Z,9.25
2019-05-07T23:30:46.753Z,7.83
2019-05-07T23:33:17.075Z,9.90
2019-05-07T23:35:48.389Z,10.10
2019-05-07T23:38:19.179Z,10.35
2019-05-07T23:41:12.702Z,10.65
2019-05-07T23:44:03.283Z,10.75
2019-05-07T23:46:33.633Z,9.45
2019-05-07T23:49:03.933Z,10.48
2019-05-07T23:51:34.345Z,10.53
2019-05-07T23:54:05.255Z,9.73
2019-05-07T23:56:36.667Z,8.95
2019-05-07T23:59:06.980Z,13.10
